deformed-offering
Saratoga-Weather Station Historical Data
 
Daily Summary for November 11, 2019 Units:  English    Metric   Both
Daily Weekly Monthly Yearly Custom
  Current: High: Low: Average:
Temperature: 64.4 °F 75.8 °F 45.3 °F 57.8 °F
Dew Point: 51.9 °F 54.3 °F 40.9 °F 46.5 °F
Humidity: 64% 95% 34.9% 70%
Wind Speed: 0mph 3.1mph 0mph 0.5mph
Wind Gust: 0mph 7mph - -
WindCalm - - ENE
Pressure: 30.02 in 30.06 in 29.99 in -
Precipitation: 0.00 in      
Historical Graphs
 
 
Tabular Data for November 11, 2019
Time Temperature Dew Point Pressure Wind Wind Speed Wind Gust Humidity Rainfall Rate (Hourly) solar
00:04 49.6 °F 42.7 °F 30.01 in Calm     77% 0.00 in 0 W/m2
00:09 49.6 °F 42.7 °F 30.01 in Calm     77% 0.00 in 0 W/m2
00:14 49.5 °F 42.6 °F 30.01 in Calm     77% 0.00 in 0 W/m2
00:19 49.5 °F 42.6 °F 30.01 in Calm     77% 0.00 in 0 W/m2
00:24 49.5 °F 42.6 °F 30.00 in Calm     77% 0.00 in 0 W/m2
00:29 49.4 °F 42.5 °F 30.00 in Calm     77% 0.00 in 0 W/m2
00:34 49.4 °F 42.5 °F 30.00 in Calm     77% 0.00 in 0 W/m2
00:39 49.3 °F 42.4 °F 30.00 in Calm     77% 0.00 in 0 W/m2
00:44 49.2 °F 42.3 °F 30.00 in Calm     77% 0.00 in 0 W/m2
00:49 49.1 °F 42.2 °F 30.00 in Calm     77% 0.00 in 0 W/m2
00:54 49.1 °F 42.2 °F 30.00 in Calm     77% 0.00 in 0 W/m2
00:59 48.9 °F 42 °F 30.00 in Calm     77% 0.00 in 0 W/m2
01:04 48.9 °F 42.1 °F 30.00 in Calm     77.6% 0.00 in 0 W/m2
01:09 48.8 °F 42.2 °F 30.00 in Calm     78% 0.00 in 0 W/m2
01:14 48.7 °F 42.1 °F 30.00 in Calm     78% 0.00 in 0 W/m2
01:19 48.6 °F 42 °F 30.00 in Calm     78% 0.00 in 0 W/m2
01:24 48.5 °F 42 °F 30.00 in Calm     78% 0.00 in 0 W/m2
01:29 48.4 °F 41.9 °F 30.00 in Calm     78% 0.00 in 0 W/m2
01:34 48.3 °F 41.8 °F 30.01 in Calm     78% 0.00 in 0 W/m2
01:39 48.3 °F 41.8 °F 30.01 in Calm     78% 0.00 in 0 W/m2
01:44 48.2 °F 41.7 °F 30.01 in Calm     78% 0.00 in 0 W/m2
01:49 48 °F 41.5 °F 30.01 in Calm     78% 0.00 in 0 W/m2
01:54 47.9 °F 41.4 °F 30.01 in Calm     78% 0.00 in 0 W/m2
01:59 47.8 °F 41.3 °F 30.01 in Calm     78% 0.00 in 0 W/m2
02:04 47.7 °F 41.3 °F 30.00 in Calm     78.3% 0.00 in 0 W/m2
02:09 47.6 °F 41.4 °F 30.00 in Calm     79% 0.00 in 0 W/m2
02:14 47.5 °F 41.3 °F 30.00 in Calm     79% 0.00 in 0 W/m2
02:19 47.4 °F 41.2 °F 30.00 in Calm     79% 0.00 in 0 W/m2
02:24 47.3 °F 41.1 °F 30.00 in Calm     79% 0.00 in 0 W/m2
02:29 47.2 °F 41 °F 30.00 in Calm     79% 0.00 in 0 W/m2
02:34 47.1 °F 41 °F 30.00 in Calm     79.4% 0.00 in 0 W/m2
02:39 47.1 °F 41.2 °F 30.00 in Calm     80% 0.00 in 0 W/m2
02:44 47 °F 41.1 °F 30.00 in Calm     80% 0.00 in 0 W/m2
02:49 46.8 °F 41 °F 30.00 in Calm     80% 0.00 in 0 W/m2
02:54 46.8 °F 41 °F 30.00 in Calm     80% 0.00 in 0 W/m2
02:59 46.8 °F 41.1 °F 30.00 in Calm     80.4% 0.00 in 0 W/m2
03:04 46.7 °F 41.2 °F 30.00 in Calm     80.9% 0.00 in 0 W/m2
03:09 46.6 °F 41 °F 30.00 in Calm     80.6% 0.00 in 0 W/m2
03:14 46.5 °F 41 °F 30.00 in Calm     81% 0.00 in 0 W/m2
03:19 46.5 °F 41 °F 30.00 in Calm     81% 0.00 in 0 W/m2
03:24 46.4 °F 40.9 °F 30.00 in Calm     81% 0.00 in 0 W/m2
03:29 46.4 °F 40.9 °F 29.99 in Calm     81% 0.00 in 0 W/m2
03:34 46.4 °F 40.9 °F 30.00 in Calm     81% 0.00 in 0 W/m2
03:39 46.3 °F 40.9 °F 30.00 in Calm     81.1% 0.00 in 0 W/m2
03:44 46.3 °F 41.1 °F 29.99 in Calm     82% 0.00 in 0 W/m2
03:49 46.2 °F 41 °F 29.99 in Calm     82% 0.00 in 0 W/m2
03:54 46.2 °F 41 °F 29.99 in Calm     82% 0.00 in 0 W/m2
03:59 46.2 °F 41 °F 30.00 in Calm     82% 0.00 in 0 W/m2
04:04 46.2 °F 41.2 °F 30.00 in Calm     82.8% 0.00 in 0 W/m2
04:09 46.1 °F 41.2 °F 30.00 in Calm     83% 0.00 in 0 W/m2
04:14 46.1 °F 41.2 °F 30.00 in Calm     83% 0.00 in 0 W/m2
04:19 46.1 °F 41.2 °F 30.00 in Calm     83% 0.00 in 0 W/m2
04:24 46 °F 41.1 °F 30.00 in Calm     83% 0.00 in 0 W/m2
04:29 46 °F 41.1 °F 30.00 in Calm     83% 0.00 in 0 W/m2
04:34 46 °F 41.1 °F 30.00 in Calm     83% 0.00 in 0 W/m2
04:39 46 °F 41.1 °F 30.00 in Calm     83% 0.00 in 0 W/m2
04:44 45.9 °F 41.2 °F 30.00 in Calm     83.8% 0.00 in 0 W/m2
04:49 45.9 °F 41.3 °F 30.01 in Calm     84% 0.00 in 0 W/m2
04:54 45.9 °F 41.3 °F 30.01 in Calm     84% 0.00 in 0 W/m2
04:59 45.9 °F 41.3 °F 30.01 in Calm     84% 0.00 in 0 W/m2
05:04 45.9 °F 41.5 °F 30.01 in Calm     84.8% 0.00 in 0 W/m2
05:09 45.9 °F 41.6 °F 30.01 in Calm     85% 0.00 in 0 W/m2
05:14 46 °F 41.9 °F 30.01 in Calm     85.6% 0.00 in 0 W/m2
05:19 46 °F 42 °F 30.01 in Calm     86% 0.00 in 0 W/m2
05:24 46 °F 42 °F 30.01 in Calm     86% 0.00 in 0 W/m2
05:29 46.1 °F 42.1 °F 30.02 in Calm     86.3% 0.00 in 0 W/m2
05:34 46.1 °F 42.4 °F 30.02 in Calm     87% 0.00 in 0 W/m2
05:39 46.1 °F 42.4 °F 30.02 in Calm     87% 0.00 in 0 W/m2
05:44 46.1 °F 42.5 °F 30.02 in Calm     87.3% 0.00 in 0 W/m2
05:49 46.1 °F 42.7 °F 30.02 in Calm     88% 0.00 in 0 W/m2
05:54 46.1 °F 42.7 °F 30.02 in Calm     88% 0.00 in 0 W/m2
05:59 46.1 °F 42.7 °F 30.02 in Calm     88% 0.00 in 0 W/m2
06:04 46 °F 42.6 °F 30.02 in Calm     88% 0.00 in 0 W/m2
06:09 46 °F 42.6 °F 30.03 in Calm     88% 0.00 in 0 W/m2
06:14 45.9 °F 42.5 °F 30.03 in Calm     88% 0.00 in 0 W/m2
06:19 45.8 °F 42.4 °F 30.03 in Calm     88% 0.00 in 0 W/m2
06:24 45.7 °F 42.3 °F 30.03 in Calm     88% 0.00 in 0 W/m2
06:29 45.7 °F 42.3 °F 30.03 in Calm     88% 0.00 in 0 W/m2
06:34 45.5 °F 42.2 °F 30.03 in Calm     88% 0.00 in 0 W/m2
06:39 45.5 °F 42.2 °F 30.03 in Calm     88% 0.00 in 0 W/m2
06:44 45.4 °F 42.1 °F 30.03 in Calm     88% 0.00 in 0 W/m2
06:49 45.4 °F 42.1 °F 30.04 in Calm     88% 0.00 in 5 W/m2
06:54 45.4 °F 42.1 °F 30.04 in Calm     88% 0.00 in 7 W/m2
06:59 45.4 °F 42.1 °F 30.04 in Calm     88% 0.00 in 9 W/m2
07:04 45.3 °F 42 °F 30.04 in Calm     88% 0.00 in 12 W/m2
07:09 45.3 °F 42 °F 30.04 in Calm     88% 0.00 in 16 W/m2
07:14 45.4 °F 42.1 °F 30.05 in Calm     88% 0.00 in 23 W/m2
07:19 45.4 °F 42.1 °F 30.05 in Calm     88.1% 0.00 in 26 W/m2
07:24 45.4 °F 42.2 °F 30.05 in Calm     88.5% 0.00 in 26 W/m2
07:29 45.5 °F 42.4 °F 30.05 in Calm     89% 0.00 in 30 W/m2
07:34 45.6 °F 42.5 °F 30.05 in Calm     89% 0.00 in 40 W/m2
07:39 45.7 °F 42.6 °F 30.05 in Calm     89% 0.00 in 130 W/m2
07:44 45.8 °F 42.7 °F 30.05 in Calm     89% 0.00 in 141 W/m2
07:49 46 °F 43.1 °F 30.05 in Calm     89.5% 0.00 in 155 W/m2
07:54 46.1 °F 43 °F 30.05 in Calm     89% 0.00 in 169 W/m2
07:59 46.2 °F 43.1 °F 30.05 in Calm     89% 0.00 in 181 W/m2
08:04 46.2 °F 43.1 °F 30.05 in Calm     89% 0.00 in 195 W/m2
08:09 46.3 °F 43.5 °F 30.05 in Calm     89.8% 0.00 in 208 W/m2
08:14 46.5 °F 43.7 °F 30.05 in Calm     90% 0.00 in 220 W/m2
08:19 46.8 °F 44.2 °F 30.06 in Calm     90.8% 0.00 in 232 W/m2
08:24 47.1 °F 44.6 °F 30.06 in Calm     91% 0.00 in 243 W/m2
08:29 47.5 °F 45.1 °F 30.06 in Calm     91.4% 0.00 in 257 W/m2
08:34 47.9 °F 45.7 °F 30.06 in Calm     92% 0.00 in 269 W/m2
08:39 48.4 °F 46.4 °F 30.06 in Calm     92.6% 0.00 in 282 W/m2
08:44 48.9 °F 47 °F 30.06 in Calm     93% 0.00 in 292 W/m2
08:49 49.4 °F 47.7 °F 30.06 in Calm     93.6% 0.00 in 297 W/m2
08:54 49.9 °F 48.2 °F 30.06 in Calm     94% 0.00 in 306 W/m2
08:59 50.4 °F 48.7 °F 30.06 in Calm     94% 0.00 in 318 W/m2
09:04 50.8 °F 49.1 °F 30.06 in Calm     94% 0.00 in 334 W/m2
09:09 51.2 °F 49.5 °F 30.06 in Calm     94% 0.00 in 345 W/m2
09:14 51.6 °F 50 °F 30.06 in Calm     94.3% 0.00 in 355 W/m2
09:19 52 °F 50.6 °F 30.06 in Calm     95% 0.00 in 364 W/m2
09:24 52.4 °F 50.8 °F 30.06 in Calm     94.3% 0.00 in 373 W/m2
09:29 52.9 °F 51.2 °F 30.06 in Calm     94% 0.00 in 384 W/m2
09:34 53.3 °F 51.3 °F 30.06 in Calm     93.2% 0.00 in 391 W/m2
09:39 53.7 °F 51.3 °F 30.06 in Calm     91.7% 0.00 in 399 W/m2
09:44 54.2 °F 51.5 °F 30.06 in NNE 0.5 mph 2.3 mph 90.7% 0.00 in 410 W/m2
09:49 54.8 °F 51.7 °F 30.06 in NNE 1 mph 3.5 mph 89.4% 0.00 in 417 W/m2
09:54 55.5 °F 51.7 °F 30.06 in NNE 2.2 mph 4 mph 87.2% 0.00 in 428 W/m2
09:59 56.2 °F 51.8 °F 30.06 in NNE 1.5 mph 4 mph 85.3% 0.00 in 433 W/m2
10:04 56.8 °F 51.8 °F 30.06 in NE 0.7 mph 3.5 mph 83.4% 0.00 in 433 W/m2
10:09 57.4 °F 51.6 °F 30.06 in NNE 1.2 mph 4.6 mph 81% 0.00 in 433 W/m2
10:14 58.1 °F 51.5 °F 30.06 in NNE 0.8 mph 5 mph 78.6% 0.00 in 436 W/m2
10:19 58.7 °F 51.5 °F 30.06 in ENE 0.4 mph 3.5 mph 77% 0.00 in 461 W/m2
10:24 59.2 °F 51.5 °F 30.06 in ENE 0.9 mph 3.5 mph 75.6% 0.00 in 472 W/m2
10:29 59.6 °F 51.5 °F 30.06 in ENE 0.1 mph 3 mph 74.6% 0.00 in 480 W/m2
10:34 60 °F 51.5 °F 30.06 in North 1.4 mph 3.5 mph 73.4% 0.00 in 484 W/m2
10:39 60.6 °F 51.3 °F 30.06 in North 0.4 mph 3 mph 71.3% 0.00 in 491 W/m2
10:44 61.2 °F 51.3 °F 30.06 in North 1.3 mph 3.5 mph 70% 0.00 in 498 W/m2
10:49 61.6 °F 51.3 °F 30.06 in North 0.3 mph 3 mph 68.8% 0.00 in 498 W/m2
10:54 62.1 °F 51.5 °F 30.06 in North 0.4 mph 3.5 mph 68.2% 0.00 in 517 W/m2
10:59 62.6 °F 51 °F 30.05 in NNE 1.2 mph 3.5 mph 65.9% 0.00 in 517 W/m2
11:04 63.1 °F 50.7 °F 30.05 in NNE 0.5 mph 3 mph 64% 0.00 in 486 W/m2
11:09 63.5 °F 50.4 °F 30.05 in NNE 1 mph 4 mph 62.4% 0.00 in 472 W/m2
11:14 64.1 °F 50 °F 30.05 in NE 2.1 mph 5 mph 60.2% 0.00 in 542 W/m2
11:19 64.8 °F 50.8 °F 30.04 in ENE 0.9 mph 5 mph 60.5% 0.00 in 521 W/m2
11:24 65.4 °F 50.6 °F 30.04 in NE 1.5 mph 3.5 mph 58.9% 0.00 in 544 W/m2
11:29 65.9 °F 50.9 °F 30.04 in NE 1.2 mph 5 mph 58.5% 0.00 in 558 W/m2
11:34 66.4 °F 51 °F 30.04 in NNE 2.1 mph 6 mph 57.6% 0.00 in 556 W/m2
11:39 67 °F 51.1 °F 30.04 in NNE 1.5 mph 6 mph 56.6% 0.00 in 561 W/m2
11:44 67.5 °F 51.2 °F 30.04 in NE 1.6 mph 6 mph 56% 0.00 in 561 W/m2
11:49 67.9 °F 50.8 °F 30.03 in NE 2.7 mph 6 mph 54.4% 0.00 in 552 W/m2
11:54 68.4 °F 50.3 °F 30.03 in NNE 1.8 mph 6 mph 52.4% 0.00 in 552 W/m2
11:59 69 °F 50.4 °F 30.03 in NNE 2.4 mph 6 mph 51.5% 0.00 in 538 W/m2
12:04 69.6 °F 49.5 °F 30.03 in NE 1.5 mph 6 mph 48.7% 0.00 in 535 W/m2
12:09 69.9 °F 49.1 °F 30.02 in NE 1.5 mph 6 mph 47.6% 0.00 in 526 W/m2
12:14 70.2 °F 47.9 °F 30.02 in North 1.8 mph 6 mph 45.1% 0.00 in 537 W/m2
12:19 70.5 °F 46.9 °F 30.02 in NNE 2 mph 5 mph 43% 0.00 in 535 W/m2
12:24 70.9 °F 46.9 °F 30.02 in NNE 2.6 mph 6 mph 42.3% 0.00 in 526 W/m2
12:29 71.4 °F 46.8 °F 30.02 in NE 1.7 mph 6 mph 41.5% 0.00 in 517 W/m2
12:34 71.7 °F 47.7 °F 30.02 in ENE 1.6 mph 4 mph 42.4% 0.00 in 493 W/m2
12:39 72 °F 47.7 °F 30.01 in NE 1.3 mph 4 mph 42.2% 0.00 in 486 W/m2
12:44 72.2 °F 47.2 °F 30.01 in NNE 1.7 mph 6 mph 41.1% 0.00 in 517 W/m2
12:49 72.4 °F 47.7 °F 30.01 in NE 2.1 mph 6 mph 41.3% 0.00 in 484 W/m2
12:54 72.6 °F 47.7 °F 30.01 in NNE 1.5 mph 5 mph 41.2% 0.00 in 466 W/m2
12:59 72.8 °F 47.7 °F 30.01 in NNE 1.3 mph 6 mph 41.1% 0.00 in 454 W/m2
13:04 72.9 °F 47.1 °F 30.00 in NE 2.1 mph 6 mph 40% 0.00 in 463 W/m2
13:09 73.1 °F 47.1 °F 30.00 in NE 1.6 mph 5 mph 39.7% 0.00 in 486 W/m2
13:14 73.3 °F 47.7 °F 30.00 in NW 2 mph 6 mph 40.3% 0.00 in 498 W/m2
13:19 73.4 °F 47.4 °F 30.00 in NNW 1.8 mph 6 mph 39.7% 0.00 in 503 W/m2
13:24 73.7 °F 47.2 °F 30.00 in North 1.4 mph 5 mph 39% 0.00 in 472 W/m2
13:29 73.9 °F 47.8 °F 30.00 in NE 2 mph 6 mph 39.6% 0.00 in 394 W/m2
13:34 74 °F 47.5 °F 30.00 in NNE 1.6 mph 6 mph 39% 0.00 in 392 W/m2
13:39 74.2 °F 48.1 °F 30.00 in NW 1.5 mph 5 mph 39.8% 0.00 in 391 W/m2
13:44 74.4 °F 48.4 °F 30.00 in NNW 1.7 mph 5 mph 39.9% 0.00 in 392 W/m2
13:49 74.5 °F 47.9 °F 30.00 in North 2.2 mph 7 mph 39% 0.00 in 394 W/m2
13:54 74.7 °F 47.4 °F 30.00 in NNW 1.7 mph 7 mph 38.1% 0.00 in 396 W/m2
13:59 74.8 °F 48.2 °F 30.00 in NW 1.3 mph 5 mph 39% 0.00 in 370 W/m2
14:04 74.9 °F 48.9 °F 30.00 in NNW 1.8 mph 6 mph 40.1% 0.00 in 350 W/m2
14:09 75.1 °F 48.7 °F 30.00 in North 1.9 mph 6 mph 39.4% 0.00 in 327 W/m2
14:14 75.2 °F 48 °F 30.00 in North 1.8 mph 6 mph 38.2% 0.00 in 315 W/m2
14:19 75.3 °F 45.7 °F 30.00 in NNW 1.5 mph 6 mph 34.9% 0.00 in 297 W/m2
14:24 75.3 °F 45.7 °F 30.00 in North 1.6 mph 6 mph 35% 0.00 in 366 W/m2
14:29 75.4 °F 46.6 °F 30.00 in NNE 1.4 mph 6 mph 36% 0.00 in 338 W/m2
14:34 75.6 °F 47.9 °F 30.00 in NNE 1.4 mph 4 mph 37.5% 0.00 in 303 W/m2
14:39 75.7 °F 49.1 °F 30.00 in NE 1.6 mph 5 mph 39.1% 0.00 in 255 W/m2
14:44 75.8 °F 50.2 °F 30.00 in NE 0.7 mph 5 mph 40.6% 0.00 in 255 W/m2
14:49 75.8 °F 50.8 °F 30.00 in NE 1 mph 3.5 mph 41.7% 0.00 in 255 W/m2
14:54 75.7 °F 49.5 °F 30.00 in NE 1.6 mph 3.5 mph 39.6% 0.00 in 267 W/m2
14:59 75.6 °F 49.8 °F 30.00 in NE 1.6 mph 4 mph 40.3% 0.00 in 246 W/m2
15:04 75.7 °F 50.2 °F 30.00 in NNE 1.6 mph 4 mph 40.8% 0.00 in 253 W/m2
15:09 75.6 °F 50 °F 30.00 in NNW 1.6 mph 4 mph 40.7% 0.00 in 192 W/m2
15:14 75.6 °F 50.1 °F 30.00 in North 2 mph 5 mph 40.8% 0.00 in 252 W/m2
15:19 75.5 °F 50.8 °F 30.00 in NNE 2.3 mph 5 mph 41.9% 0.00 in 252 W/m2
15:24 75.4 °F 50.9 °F 30.00 in NNE 2.4 mph 5 mph 42.3% 0.00 in 246 W/m2
15:29 75.4 °F 51.3 °F 30.00 in NE 2.2 mph 5 mph 43% 0.00 in 246 W/m2
15:34 75.3 °F 51.3 °F 30.00 in NE 2.8 mph 5 mph 43% 0.00 in 169 W/m2
15:39 75.3 °F 51.3 °F 30.00 in NE 3.1 mph 6 mph 43% 0.00 in 132 W/m2
15:44 75.1 °F 51.4 °F 30.00 in North 1.8 mph 6 mph 43.4% 0.00 in 84 W/m2
15:49 75.1 °F 52.1 °F 30.01 in North 0.6 mph 5 mph 44.8% 0.00 in 70 W/m2
15:54 74.9 °F 52 °F 30.01 in NE 1.4 mph 5 mph 44.8% 0.00 in 63 W/m2
15:59 74.8 °F 52.7 °F 30.01 in NE 1 mph 5 mph 46.3% 0.00 in 60 W/m2
16:04 74.6 °F 52.1 °F 30.01 in NE 0.7 mph 2.3 mph 45.3% 0.00 in 56 W/m2
16:09 74.3 °F 53.2 °F 30.01 in ENE 0.7 mph 3.5 mph 47.7% 0.00 in 53 W/m2
16:14 74 °F 52.7 °F 30.00 in ENE 0.7 mph 3.5 mph 47.4% 0.00 in 53 W/m2
16:19 73.8 °F 52.8 °F 30.00 in ENE 0.1 mph 3 mph 47.9% 0.00 in 49 W/m2
16:24 73.5 °F 53.1 °F 30.00 in Calm   1 mph 48.9% 0.00 in 42 W/m2
16:29 73.3 °F 53.2 °F 30.00 in ENE 0.2 mph 1.2 mph 49.4% 0.00 in 39 W/m2
16:34 73 °F 53.5 °F 30.00 in Calm   1 mph 50.6% 0.00 in 37 W/m2
16:39 72.7 °F 54.3 °F 30.00 in Calm     52.4% 0.00 in 33 W/m2
16:44 72.2 °F 54.1 °F 30.00 in Calm     53% 0.00 in 28 W/m2
16:49 71.9 °F 53.9 °F 30.01 in Calm     53.1% 0.00 in 18 W/m2
16:54 71.4 °F 54.3 °F 30.01 in Calm     54.8% 0.00 in 12 W/m2
16:59 70.9 °F 54.1 °F 30.01 in Calm     55.4% 0.00 in 7 W/m2
17:04 70.4 °F 54.2 °F 30.01 in Calm     56.6% 0.00 in 5 W/m2
17:09 70 °F 54.2 °F 30.01 in Calm     57.3% 0.00 in 5 W/m2
17:14 69.5 °F 54 °F 30.01 in Calm     57.8% 0.00 in 5 W/m2
17:19 69.1 °F 53.9 °F 30.01 in Calm     58.4% 0.00 in 0 W/m2
17:24 68.6 °F 53.7 °F 30.01 in Calm     59.1% 0.00 in 0 W/m2
17:29 68.1 °F 53.7 °F 30.01 in Calm     60% 0.00 in 0 W/m2
17:34 67.6 °F 53.5 °F 30.01 in Calm     60.6% 0.00 in 0 W/m2
17:39 67.2 °F 53.7 °F 30.01 in Calm     61.9% 0.00 in 0 W/m2
17:44 66.8 °F 53.4 °F 30.01 in Calm     62% 0.00 in 0 W/m2
17:49 66.3 °F 52.9 °F 30.02 in Calm     62% 0.00 in 0 W/m2
17:54 65.9 °F 52.7 °F 30.02 in Calm     62.4% 0.00 in 0 W/m2
17:59 65.5 °F 52.7 °F 30.02 in Calm     63.3% 0.00 in 0 W/m2
18:04 65.1 °F 52.6 °F 30.02 in Calm     64% 0.00 in 0 W/m2
18:09 64.8 °F 52.3 °F 30.02 in Calm     64% 0.00 in 0 W/m2
18:14 64.4 °F 51.9 °F 30.02 in Calm     64% 0.00 in 0 W/m2
Saratoga, California, USA
Compliments of Weather Underground - 2 mb

WU-history PHP script courtesy of Juneau County Weather and modified for WU/TWC API use by Saratoga-weather.org

This script set is available on GitHub.

deformed-offering